Terminal Aerodrome Forecast
Issued by NWS

Home | Current Version | Previous Version | Text Only | Print | Product List | Glossary On
Versions: 1 2 3 4 5 6 7 8 9 10 11 12 13 14 15 16 17 18 19
000
FTUS46 KMTR 041339 AAA
TAFMRY
TAF AMD
KMRY 041339Z 0414/0512 VRB03KT 3SM BR OVC003
      TEMPO 0414/0416 1SM BR
     FM041700 VRB04KT P6SM BKN006
     FM041900 30007KT P6SM SCT010
     FM042100 26009KT P6SM FEW010
     FM050200 25008KT P6SM BKN009
     FM050600 25004KT P6SM OVC005=

USA.gov is the U.S. government's official web portal to all federal, state and local government web resources and services.